Wetterdaten: Woche 15.01.18 - 21.01.18 (KW3)
Datum Zeit Temp. A. Feuchte A. Luftdruck Regen Wind Richtung Taupunkt Windchill Windben
15.01.2018 00:00 -1,1 C 84 % 1027,5 hPa 0,0 l/m 0,3 km/h N -3,4 C -1,1 C 6,0 km/h
15.01.2018 01:00 -1,2 C 84 % 1027,1 hPa 0,0 l/m 0,2 km/h N -3,6 C -1,2 C 4,0 km/h
15.01.2018 02:00 -1,4 C 84 % 1026,9 hPa 0,0 l/m 0,6 km/h N -3,7 C -1,4 C 6,0 km/h
15.01.2018 03:00 -1,5 C 84 % 1026,6 hPa 0,0 l/m 0,4 km/h N -3,9 C -1,5 C 3,2 km/h
15.01.2018 04:00 -2,0 C 84 % 1026,2 hPa 0,0 l/m 0,1 km/h N -4,3 C -2,0 C 2,0 km/h
15.01.2018 05:00 -2,5 C 84 % 1026,1 hPa 0,0 l/m 0,1 km/h N -4,8 C -2,5 C 2,0 km/h
15.01.2018 06:00 -2,8 C 84 % 1026,0 hPa 0,0 l/m 0,2 km/h N -5,1 C -2,8 C 4,0 km/h
15.01.2018 07:00 -3,0 C 84 % 1026,0 hPa 0,0 l/m 0,0 km/h N -5,3 C -3,0 C 1,2 km/h
15.01.2018 08:00 -2,9 C 84 % 1026,1 hPa 0,0 l/m 0,0 km/h N -5,2 C -2,9 C 0,8 km/h
15.01.2018 09:00 -2,0 C 84 % 1026,2 hPa 0,0 l/m 0,8 km/h N -4,3 C -2,0 C 6,4 km/h
15.01.2018 10:00 -0,9 C 84 % 1025,9 hPa 0,0 l/m 2,1 km/h N -3,3 C -0,9 C 7,6 km/h
15.01.2018 11:00 -0,4 C 83 % 1025,4 hPa 0,0 l/m 2,5 km/h N -2,9 C -0,4 C 12,5 km/h
15.01.2018 12:00 0,3 C 81 % 1024,3 hPa 0,0 l/m 2,9 km/h N -2,5 C 0,3 C 11,7 km/h
15.01.2018 13:00 0,4 C 80 % 1023,3 hPa 0,3 l/m 3,0 km/h N -2,8 C 0,4 C 12,1 km/h
15.01.2018 14:00 -0,2 C 80 % 1022,7 hPa 0,0 l/m 2,2 km/h N -3,2 C -0,2 C 9,3 km/h
15.01.2018 15:00 -0,9 C 81 % 1022,0 hPa 0,3 l/m 2,9 km/h N -3,7 C -0,9 C 9,6 km/h
15.01.2018 16:00 -1,2 C 82 % 1021,4 hPa 0,0 l/m 2,2 km/h N -3,9 C -1,2 C 12,4 km/h
15.01.2018 17:00 -1,4 C 83 % 1020,7 hPa 0,0 l/m 1,8 km/h N -3,9 C -1,4 C 8,4 km/h
15.01.2018 18:00 -1,4 C 83 % 1019,8 hPa 0,0 l/m 1,5 km/h N -3,9 C -1,4 C 9,2 km/h
15.01.2018 19:00 -1,7 C 84 % 1019,0 hPa 0,0 l/m 1,2 km/h N -4,1 C -1,7 C 7,6 km/h
15.01.2018 20:00 -1,8 C 84 % 1018,3 hPa 0,0 l/m 1,7 km/h N -4,2 C -1,8 C 8,4 km/h
15.01.2018 21:00 -1,9 C 84 % 1017,3 hPa 0,0 l/m 2,1 km/h N -4,2 C -1,9 C 10,0 km/h
15.01.2018 22:00 -2,0 C 84 % 1016,4 hPa 0,0 l/m 1,0 km/h N -4,4 C -2,0 C 5,2 km/h
15.01.2018 23:00 -2,3 C 84 % 1015,1 hPa 0,0 l/m 0,5 km/h N -4,7 C -2,3 C 6,0 km/h
16.01.2018 00:00 -2,0 C 84 % 1013,5 hPa 0,0 l/m 1,8 km/h N -4,4 C -2,0 C 8,4 km/h
16.01.2018 01:00 -1,6 C 84 % 1012,1 hPa 0,0 l/m 3,5 km/h N -3,9 C -1,6 C 11,3 km/h
16.01.2018 02:00 -1,4 C 84 % 1010,8 hPa 0,0 l/m 2,2 km/h N -3,8 C -1,4 C 9,6 km/h
16.01.2018 03:00 -1,5 C 84 % 1009,8 hPa 0,0 l/m 1,8 km/h N -3,8 C -1,5 C 6,4 km/h
16.01.2018 04:00 -1,3 C 84 % 1008,6 hPa 0,0 l/m 1,4 km/h N -3,7 C -1,3 C 7,2 km/h
16.01.2018 05:00 -1,2 C 84 % 1008,1 hPa 0,0 l/m 0,3 km/h N -3,5 C -1,2 C 2,8 km/h
16.01.2018 06:00 -1,0 C 84 % 1007,1 hPa 0,0 l/m 0,0 km/h N -3,4 C -1,0 C 1,2 km/h
16.01.2018 07:00 -0,8 C 84 % 1006,6 hPa 0,0 l/m 0,0 km/h N -3,2 C -0,8 C 2,0 km/h
16.01.2018 08:00 -0,6 C 84 % 1006,3 hPa 0,0 l/m 0,1 km/h N -3,0 C -0,6 C 2,0 km/h
16.01.2018 09:00 -0,1 C 84 % 1005,5 hPa 0,0 l/m 0,1 km/h N -2,5 C -0,1 C 2,4 km/h
16.01.2018 10:00 0,6 C 84 % 1004,7 hPa 0,0 l/m 0,1 km/h N -1,8 C 0,6 C 2,4 km/h
16.01.2018 11:00 0,9 C 84 % 1003,5 hPa 0,0 l/m 0,0 km/h N -1,4 C 0,9 C 2,4 km/h
16.01.2018 12:00 0,8 C 84 % 1002,5 hPa 0,5 l/m 0,1 km/h N -1,6 C 0,8 C 1,2 km/h
16.01.2018 13:00 1,4 C 84 % 1000,8 hPa 0,5 l/m 0,2 km/h N -1,0 C 1,4 C 4,8 km/h
16.01.2018 14:00 2,0 C 84 % 1000,3 hPa 0,5 l/m 0,2 km/h N -0,4 C 2,0 C 3,2 km/h
16.01.2018 15:00 2,3 C 84 % 999,5 hPa 0,3 l/m 0,2 km/h N -0,1 C 2,3 C 3,2 km/h
16.01.2018 16:00 1,7 C 84 % 999,1 hPa 0,3 l/m 0,0 km/h N -0,7 C 1,7 C 2,0 km/h
16.01.2018 17:00 1,1 C 84 % 999,3 hPa 0,0 l/m 0,2 km/h N -1,3 C 1,1 C 3,2 km/h
16.01.2018 18:00 1,6 C 84 % 999,3 hPa 1,3 l/m 1,5 km/h N -0,8 C 1,6 C 8,0 km/h
16.01.2018 19:00 4,5 C 83 % 999,0 hPa 0,5 l/m 9,0 km/h N 1,9 C 2,4 C 24,9 km/h
16.01.2018 20:00 5,8 C 73 % 999,4 hPa 0,0 l/m 6,0 km/h N 1,3 C 5,3 C 20,1 km/h
16.01.2018 21:00 5,4 C 72 % 999,3 hPa 0,0 l/m 2,4 km/h N 0,8 C 5,4 C 11,3 km/h
16.01.2018 22:00 5,4 C 71 % 999,3 hPa 0,0 l/m 1,6 km/h N 0,5 C 5,4 C 8,8 km/h
16.01.2018 23:00 3,8 C 77 % 998,5 hPa 0,0 l/m 2,0 km/h N 0,1 C 3,8 C 6,8 km/h
17.01.2018 00:00 3,5 C 79 % 997,6 hPa 0,0 l/m 2,8 km/h N 0,2 C 3,5 C 8,4 km/h
17.01.2018 01:00 4,7 C 77 % 998,7 hPa 0,0 l/m 6,1 km/h N 1,1 C 3,8 C 18,5 km/h
17.01.2018 02:00 4,0 C 80 % 998,0 hPa 0,0 l/m 4,9 km/h N 0,9 C 4,0 C 13,7 km/h
17.01.2018 03:00 4,3 C 79 % 997,5 hPa 0,0 l/m 9,3 km/h N 1,0 C 1,9 C 26,9 km/h
17.01.2018 04:00 4,4 C 76 % 996,2 hPa 0,0 l/m 14,2 km/h N 0,5 C -1,2 C 34,2 km/h
17.01.2018 05:00 4,4 C 75 % 996,3 hPa 0,0 l/m 15,8 km/h N 0,3 C -2,1 C 35,4 km/h
17.01.2018 06:00 4,0 C 77 % 996,1 hPa 0,0 l/m 9,9 km/h N 0,3 C 1,2 C 26,5 km/h
17.01.2018 07:00 4,1 C 75 % 995,6 hPa 0,0 l/m 8,0 km/h N 0,1 C 2,7 C 21,3 km/h
17.01.2018 08:00 3,9 C 78 % 995,1 hPa 0,0 l/m 6,7 km/h N 0,3 C 3,5 C 22,1 km/h
17.01.2018 09:00 4,4 C 78 % 995,9 hPa 0,0 l/m 3,3 km/h N 0,9 C 4,0 C 13,3 km/h
17.01.2018 10:00 5,8 C 71 % 995,2 hPa 0,0 l/m 17,9 km/h N 1,0 C -1,1 C 47,9 km/h
17.01.2018 11:00 4,6 C 78 % 997,0 hPa 0,8 l/m 12,3 km/h N 1,1 C 0,2 C 33,8 km/h
17.01.2018 12:00 4,6 C 78 % 997,3 hPa 0,3 l/m 10,3 km/h N 0,9 C 1,5 C 33,0 km/h
17.01.2018 13:00 4,8 C 69 % 997,9 hPa 0,0 l/m 17,8 km/h N -0,3 C -2,5 C 48,7 km/h
17.01.2018 14:00 4,5 C 69 % 998,7 hPa 0,0 l/m 18,4 km/h N -0,6 C -3,1 C 45,8 km/h
17.01.2018 15:00 3,9 C 71 % 999,7 hPa 0,0 l/m 17,5 km/h N -0,9 C -3,5 C 39,8 km/h
17.01.2018 16:00 3,4 C 69 % 1000,5 hPa 0,0 l/m 16,0 km/h N -1,8 C -3,4 C 43,0 km/h
17.01.2018 17:00 3,2 C 68 % 1002,0 hPa 0,0 l/m 15,0 km/h N -2,2 C -3,1 C 39,8 km/h
17.01.2018 18:00 2,8 C 68 % 1003,5 hPa 0,0 l/m 9,8 km/h N -2,6 C -0,2 C 33,8 km/h
17.01.2018 19:00 2,3 C 74 % 1004,6 hPa 0,0 l/m 11,9 km/h N -1,9 C -2,2 C 28,6 km/h
17.01.2018 20:00 2,4 C 71 % 1005,1 hPa 0,0 l/m 9,9 km/h N -2,3 C -0,7 C 28,6 km/h
17.01.2018 21:00 2,2 C 73 % 1005,3 hPa 0,0 l/m 8,8 km/h N -2,1 C 0,1 C 26,2 km/h
17.01.2018 22:00 2,3 C 75 % 1005,8 hPa 0,0 l/m 12,7 km/h N -1,7 C -2,7 C 31,8 km/h
17.01.2018 23:00 2,8 C 73 % 1006,3 hPa 0,0 l/m 10,0 km/h N -1,6 C -0,4 C 29,4 km/h
18.01.2018 00:00 3,2 C 73 % 1006,9 hPa 0,0 l/m 11,8 km/h N -1,3 C -1,2 C 38,2 km/h
18.01.2018 01:00 3,4 C 70 % 1007,6 hPa 0,0 l/m 13,4 km/h N -1,6 C -2,0 C 37,8 km/h
18.01.2018 02:00 3,4 C 68 % 1008,5 hPa 0,0 l/m 12,2 km/h N -2,0 C -1,1 C 31,8 km/h
18.01.2018 03:00 3,2 C 68 % 1009,3 hPa 0,0 l/m 10,4 km/h N -2,1 C -0,2 C 25,3 km/h
18.01.2018 04:00 2,9 C 70 % 1009,8 hPa 0,0 l/m 9,0 km/h N -1,9 C 0,6 C 27,4 km/h
18.01.2018 05:00 2,9 C 71 % 1009,8 hPa 0,0 l/m 8,8 km/h N -1,9 C 0,7 C 29,0 km/h
18.01.2018 06:00 3,2 C 65 % 1010,2 hPa 0,0 l/m 8,2 km/h N -2,7 C 1,1 C 26,2 km/h
18.01.2018 07:00 2,8 C 71 % 1010,4 hPa 0,0 l/m 5,3 km/h N -1,9 C 2,8 C 23,3 km/h
18.01.2018 08:00 3,2 C 72 % 1010,7 hPa 0,0 l/m 4,2 km/h N -1,4 C 3,2 C 14,1 km/h
18.01.2018 09:00 3,8 C 74 % 1010,4 hPa 0,0 l/m 2,2 km/h N -0,5 C 3,8 C 10,9 km/h
18.01.2018 10:00 4,8 C 72 % 1009,5 hPa 0,0 l/m 0,8 km/h N 0,2 C 4,8 C 7,6 km/h
18.01.2018 11:00 5,3 C 69 % 1008,6 hPa 0,0 l/m 1,8 km/h N 0,0 C 5,3 C 11,7 km/h
18.01.2018 12:00 5,1 C 67 % 1006,8 hPa 0,0 l/m 2,8 km/h N -0,5 C 5,1 C 14,1 km/h
18.01.2018 13:00 4,8 C 69 % 1005,3 hPa 0,0 l/m 3,6 km/h N -0,3 C 4,8 C 15,3 km/h
18.01.2018 14:00 4,8 C 73 % 1004,0 hPa 0,0 l/m 2,6 km/h N 0,3 C 4,8 C 14,9 km/h
18.01.2018 15:00 4,5 C 74 % 1002,6 hPa 0,0 l/m 1,3 km/h N 0,2 C 4,5 C 8,4 km/h
18.01.2018 16:00 5,0 C 71 % 1001,8 hPa 0,0 l/m 1,7 km/h N 0,1 C 5,0 C 12,5 km/h
18.01.2018 17:00 5,4 C 68 % 1000,7 hPa 0,0 l/m 2,5 km/h N -0,1 C 5,4 C 9,3 km/h
18.01.2018 18:00 5,6 C 64 % 999,9 hPa 0,0 l/m 4,1 km/h N -0,7 C 5,6 C 18,9 km/h
18.01.2018 19:00 7,9 C 64 % 999,6 hPa 0,0 l/m 6,4 km/h N 1,5 C 7,0 C 22,1 km/h
18.01.2018 20:00 9,9 C 67 % 1000,5 hPa 0,0 l/m 9,8 km/h N 4,0 C 7,7 C 29,4 km/h
18.01.2018 21:00 8,9 C 74 % 1001,0 hPa 0,5 l/m 3,1 km/h N 4,5 C 8,9 C 13,3 km/h
18.01.2018 22:00 7,8 C 79 % 1001,8 hPa 0,3 l/m 1,8 km/h N 4,4 C 7,8 C 12,5 km/h
18.01.2018 23:00 7,0 C 80 % 1002,9 hPa 1,3 l/m 5,5 km/h N 3,8 C 6,7 C 17,3 km/h
19.01.2018 00:00 5,6 C 82 % 1003,6 hPa 1,8 l/m 5,9 km/h N 2,7 C 4,9 C 17,7 km/h
19.01.2018 01:00 4,5 C 83 % 1004,3 hPa 2,6 l/m 3,0 km/h N 1,9 C 4,5 C 10,1 km/h
19.01.2018 02:00 3,9 C 83 % 1004,5 hPa 0,0 l/m 2,8 km/h N 1,3 C 3,9 C 8,0 km/h
19.01.2018 03:00 4,2 C 82 % 1004,6 hPa 0,0 l/m 4,0 km/h N 1,4 C 4,2 C 15,3 km/h
19.01.2018 04:00 4,8 C 78 % 1004,5 hPa 0,0 l/m 6,2 km/h N 1,2 C 4,5 C 21,7 km/h
19.01.2018 05:00 4,7 C 77 % 1004,6 hPa 0,0 l/m 6,6 km/h N 1,0 C 4,4 C 20,1 km/h
19.01.2018 06:00 4,2 C 79 % 1004,9 hPa 0,0 l/m 3,1 km/h N 0,9 C 4,2 C 12,5 km/h
19.01.2018 07:00 3,8 C 82 % 1005,5 hPa 1,3 l/m 0,2 km/h N 1,0 C 3,8 C 4,4 km/h
19.01.2018 08:00 3,0 C 83 % 1006,1 hPa 1,6 l/m 0,0 km/h N 0,5 C 3,0 C 1,6 km/h
19.01.2018 09:00 2,8 C 84 % 1007,2 hPa 1,3 l/m 0,0 km/h N 0,4 C 2,8 C 0,4 km/h
19.01.2018 10:00 3,4 C 83 % 1007,7 hPa 0,0 l/m 1,6 km/h N 0,8 C 3,4 C 6,8 km/h
19.01.2018 11:00 5,7 C 81 % 1007,8 hPa 0,3 l/m 12,3 km/h N 2,6 C 1,6 C 33,8 km/h
19.01.2018 12:00 6,7 C 73 % 1007,4 hPa 0,0 l/m 16,2 km/h N 2,2 C 0,7 C 44,7 km/h
19.01.2018 13:00 6,5 C 69 % 1007,3 hPa 0,0 l/m 20,4 km/h N 1,3 C -1,3 C 49,1 km/h
19.01.2018 14:00 6,2 C 67 % 1008,0 hPa 0,0 l/m 20,3 km/h N 0,5 C -1,7 C 45,8 km/h
19.01.2018 15:00 5,7 C 67 % 1008,5 hPa 0,0 l/m 18,4 km/h N 0,1 C -1,5 C 39,4 km/h
19.01.2018 16:00 5,1 C 66 % 1009,5 hPa 0,0 l/m 12,9 km/h N -0,9 C 0,4 C 32,2 km/h
19.01.2018 17:00 4,4 C 68 % 1010,1 hPa 0,0 l/m 8,8 km/h N -1,0 C 2,4 C 24,5 km/h
19.01.2018 18:00 4,2 C 70 % 1010,9 hPa 0,0 l/m 6,1 km/h N -0,8 C 3,8 C 18,1 km/h
19.01.2018 19:00 4,2 C 68 % 1011,4 hPa 0,0 l/m 8,7 km/h N -1,1 C 2,2 C 22,9 km/h
19.01.2018 20:00 4,0 C 70 % 1011,8 hPa 0,0 l/m 8,3 km/h N -1,0 C 2,4 C 22,1 km/h
19.01.2018 21:00 4,0 C 69 % 1012,2 hPa 0,0 l/m 5,4 km/h N -1,2 C 3,5 C 17,3 km/h
19.01.2018 22:00 3,7 C 69 % 1012,5 hPa 0,0 l/m 3,2 km/h N -1,5 C 3,7 C 14,5 km/h
19.01.2018 23:00 3,5 C 70 % 1012,8 hPa 0,0 l/m 2,0 km/h N -1,5 C 3,5 C 9,7 km/h
20.01.2018 00:00 2,9 C 73 % 1013,0 hPa 0,0 l/m 0,9 km/h N -1,5 C 2,9 C 5,2 km/h
20.01.2018 01:00 1,3 C 74 % 1012,9 hPa 0,0 l/m 0,0 km/h N -2,9 C 1,3 C 0,0 km/h
20.01.2018 02:00 -0,6 C 77 % 1012,5 hPa 0,0 l/m 0,0 km/h N -4,1 C -0,6 C 0,0 km/h
20.01.2018 03:00 -1,2 C 82 % 1012,2 hPa 0,0 l/m 0,2 km/h N -4,0 C -1,2 C 1,6 km/h
20.01.2018 04:00 -0,4 C 83 % 1011,9 hPa 0,0 l/m 0,1 km/h N -2,9 C -0,4 C 1,2 km/h
20.01.2018 05:00 -0,0 C 84 % 1011,9 hPa 0,0 l/m 0,6 km/h N -2,4 C -0,0 C 3,2 km/h
20.01.2018 06:00 0,9 C 84 % 1011,8 hPa 0,0 l/m 0,2 km/h N -1,5 C 0,9 C 4,0 km/h
20.01.2018 07:00 1,9 C 84 % 1012,7 hPa 0,3 l/m 6,5 km/h N -0,6 C 0,2 C 20,5 km/h
20.01.2018 08:00 1,5 C 83 % 1013,4 hPa 0,0 l/m 0,9 km/h N -1,1 C 1,5 C 5,2 km/h
20.01.2018 09:00 2,0 C 84 % 1013,0 hPa 0,0 l/m 1,1 km/h N -0,5 C 2,0 C 8,0 km/h
20.01.2018 10:00 4,0 C 72 % 1012,5 hPa 0,0 l/m 6,1 km/h N -0,7 C 3,7 C 17,7 km/h
20.01.2018 11:00 5,3 C 64 % 1011,6 hPa 0,0 l/m 7,6 km/h N -1,0 C 4,3 C 21,7 km/h
20.01.2018 12:00 6,3 C 60 % 1010,8 hPa 0,0 l/m 5,7 km/h N -0,9 C 6,3 C 19,3 km/h
20.01.2018 13:00 6,4 C 61 % 1009,9 hPa 0,0 l/m 2,4 km/h N -0,7 C 6,4 C 12,9 km/h
20.01.2018 14:00 5,6 C 64 % 1010,0 hPa 0,0 l/m 4,9 km/h N -0,6 C 5,6 C 19,3 km/h
20.01.2018 15:00 5,0 C 67 % 1009,5 hPa 0,0 l/m 5,6 km/h N -0,6 C 4,7 C 17,7 km/h
20.01.2018 16:00 4,6 C 69 % 1009,2 hPa 0,0 l/m 1,3 km/h N -0,7 C 4,6 C 6,0 km/h
20.01.2018 17:00 3,0 C 70 % 1008,8 hPa 0,0 l/m 0,0 km/h N -1,9 C 3,0 C 0,0 km/h
20.01.2018 18:00 1,5 C 76 % 1007,9 hPa 0,0 l/m 0,0 km/h N -2,2 C 1,5 C 0,0 km/h
20.01.2018 19:00 0,7 C 79 % 1006,7 hPa 0,0 l/m 0,0 km/h N -2,5 C 0,7 C 0,0 km/h
20.01.2018 20:00 -0,3 C 81 % 1005,3 hPa 0,0 l/m 0,0 km/h N -3,2 C -0,3 C 0,0 km/h
20.01.2018 21:00 -0,9 C 82 % 1003,8 hPa 0,0 l/m 0,0 km/h N -3,6 C -0,9 C 0,0 km/h
20.01.2018 22:00 -0,9 C 83 % 1002,2 hPa 0,0 l/m 0,0 km/h N -3,3 C -0,9 C 0,4 km/h
20.01.2018 23:00 0,2 C 84 % 1000,9 hPa 0,0 l/m 0,0 km/h N -2,2 C 0,2 C 1,2 km/h
21.01.2018 00:00 0,5 C 84 % 999,9 hPa 0,0 l/m 0,0 km/h N -1,9 C 0,5 C 0,4 km/h
21.01.2018 01:00 0,5 C 84 % 999,8 hPa 0,0 l/m 0,0 km/h N -1,9 C 0,5 C 0,0 km/h
21.01.2018 02:00 0,4 C 84 % 999,8 hPa 0,0 l/m 0,1 km/h N -1,9 C 0,4 C 0,4 km/h
21.01.2018 03:00 0,3 C 84 % 999,8 hPa 0,0 l/m 0,0 km/h N -2,1 C 0,3 C 0,0 km/h
21.01.2018 04:00 0,5 C 84 % 1000,2 hPa 0,0 l/m 0,0 km/h N -1,9 C 0,5 C 1,2 km/h
21.01.2018 05:00 0,7 C 84 % 1000,8 hPa 0,0 l/m 0,1 km/h N -1,7 C 0,7 C 2,8 km/h
21.01.2018 06:00 0,6 C 84 % 1001,8 hPa 0,0 l/m 1,1 km/h N -1,8 C 0,6 C 8,1 km/h
21.01.2018 07:00 0,6 C 84 % 1003,1 hPa 0,0 l/m 4,6 km/h N -1,8 C 0,6 C 12,9 km/h
21.01.2018 08:00 0,8 C 84 % 1004,2 hPa 0,0 l/m 5,3 km/h N -1,6 C 0,8 C 18,5 km/h
21.01.2018 09:00 1,1 C 84 % 1005,1 hPa 0,0 l/m 6,7 km/h N -1,2 C 0,8 C 20,1 km/h
21.01.2018 10:00 1,6 C 84 % 1006,1 hPa 0,0 l/m 8,4 km/h N -0,9 C -0,4 C 22,5 km/h
21.01.2018 11:00 2,2 C 83 % 1007,0 hPa 0,0 l/m 9,2 km/h N -0,4 C -0,3 C 22,9 km/h
21.01.2018 12:00 2,5 C 82 % 1007,7 hPa 0,0 l/m 10,4 km/h N -0,3 C -1,0 C 24,1 km/h
21.01.2018 13:00 2,3 C 83 % 1008,6 hPa 0,0 l/m 9,3 km/h N -0,3 C -0,3 C 22,5 km/h
21.01.2018 14:00 2,0 C 83 % 1009,8 hPa 0,0 l/m 7,5 km/h N -0,5 C 1,0 C 19,7 km/h
21.01.2018 15:00 1,8 C 84 % 1011,2 hPa 0,3 l/m 7,2 km/h N -0,6 C 1,0 C 18,1 km/h
21.01.2018 16:00 1,7 C 84 % 1012,4 hPa 0,0 l/m 6,2 km/h N -0,7 C 1,7 C 18,9 km/h
21.01.2018 17:00 1,8 C 83 % 1013,6 hPa 0,0 l/m 8,7 km/h N -0,9 C -0,4 C 21,7 km/h
21.01.2018 18:00 1,9 C 79 % 1014,9 hPa 0,0 l/m 9,3 km/h N -1,4 C -0,8 C 24,9 km/h
21.01.2018 19:00 1,8 C 78 % 1016,2 hPa 0,0 l/m 11,8 km/h N -1,7 C -2,8 C 27,0 km/h
21.01.2018 20:00 1,4 C 78 % 1016,8 hPa 0,0 l/m 10,3 km/h N -2,0 C -2,1 C 24,9 km/h
21.01.2018 21:00 1,2 C 79 % 1017,0 hPa 0,0 l/m 8,1 km/h N -2,1 C -0,5 C 20,1 km/h
21.01.2018 22:00 1,2 C 78 % 1017,7 hPa 0,0 l/m 7,9 km/h N -2,2 C -0,4 C 21,7 km/h
21.01.2018 23:00 0,8 C 79 % 1017,8 hPa 0,0 l/m 7,1 km/h N -2,6 C 0,1 C 20,5 km/h
Min-Datum _ 15.01.18 20.01.18 17.01.18 - 15.01.18 - 15.01.18 17.01.18 15.01.18
_ Min-Zeit 07:30 12:30 10:30 - 00:15 - 07:30 16:00 04:45
Minimum _ -3,1 C 59 % 994,4 hPa - 0,0 km/h - -5,4 C -4,4 C 0,0 km/h
Max-Datum _ 18.01.18 15.01.18 15.01.18 19.01.18 17.01.18 - 18.01.18 18.01.18 17.01.18
_ Max-Zeit 20:00 00:00 00:00 01:15 10:30 - 21:45 21:00 13:15
Maximum _ 10,8 C 84 % 1027,6 hPa 2,6 l/m 23,6 km/h
N
- 4,9 C 9,1 C 57,9 km/h
N
Durchschnitt _ 2,3 C 78 % 1008,3 hPa #16,9 l/m 4,9 km/h N -1,3 C 1,1 C 15,2 km/h